Norseman, Australia
Current Conditions -  °F | °C
As of 10:30 AM on Sunday 21 Dec 2014 (Local Time) from YPKG Reporting Station
Overcast Overcast  
Wind Chill: 68°   Ceiling: 2000
Heat Index: 68°   Visibility: 6mi
Dew Point: 55°   Wind: 14mph
Humidity: 64%   Direction: 150°SSE
Pressure: 29.91"   Gusts: NA
Location:  32.2°S, 121.78°E
Report Text: YPKG 210230Z 15012KT 9999 OVC020 20/13 Q1013
Loading
Personal Weather Stations






























Interactive Weather Map New forecast layout! Learn more

10-Day Weather Forecast

Advertisements
Track Severe Weather on mobile